createdAt,value
2017-08-24T00:01:36.276Z,14.40
2017-08-24T00:04:03.794Z,14.40
2017-08-24T00:06:31.336Z,14.40
2017-08-24T00:08:58.858Z,14.40
2017-08-24T00:11:26.405Z,14.50
2017-08-24T00:13:53.928Z,14.50
2017-08-24T00:16:21.461Z,14.50
2017-08-24T00:18:48.978Z,14.50
2017-08-24T00:21:16.522Z,14.40
2017-08-24T00:23:44.045Z,14.30
2017-08-24T00:26:11.561Z,14.20
2017-08-24T00:28:39.099Z,14.20
2017-08-24T00:31:06.619Z,14.10
2017-08-24T00:33:34.154Z,14.20
2017-08-24T00:36:01.673Z,14.20
2017-08-24T00:38:29.211Z,14.30
2017-08-24T00:40:56.731Z,14.20
2017-08-24T00:43:24.280Z,14.10
2017-08-24T00:45:51.799Z,14.10
2017-08-24T00:48:19.347Z,14.00
2017-08-24T00:50:46.862Z,14.00
2017-08-24T00:53:14.413Z,14.10
2017-08-24T00:55:41.931Z,14.10
2017-08-24T00:58:09.455Z,14.20
2017-08-24T01:00:36.999Z,14.30
2017-08-24T01:03:04.515Z,14.40
2017-08-24T01:05:32.054Z,14.40
2017-08-24T01:07:59.570Z,14.30
2017-08-24T01:10:27.105Z,14.20
2017-08-24T01:12:54.629Z,14.20
2017-08-24T01:15:22.157Z,14.10
2017-08-24T01:17:49.670Z,14.20
2017-08-24T01:20:17.204Z,14.30
2017-08-24T01:22:44.726Z,14.30
2017-08-24T01:25:12.276Z,14.20
2017-08-24T01:27:39.795Z,14.10
2017-08-24T01:30:07.313Z,14.00
2017-08-24T01:32:34.850Z,13.90
2017-08-24T01:35:02.370Z,13.90
2017-08-24T01:37:29.915Z,13.90
2017-08-24T01:39:57.439Z,13.90
2017-08-24T01:42:24.978Z,14.00
2017-08-24T01:44:52.493Z,13.90
2017-08-24T01:47:20.026Z,13.90
2017-08-24T01:49:47.545Z,13.90
2017-08-24T01:52:15.098Z,14.00
2017-08-24T01:54:42.617Z,14.00
2017-08-24T01:57:10.130Z,14.00
2017-08-24T01:59:37.674Z,14.00
2017-08-24T02:02:05.190Z,13.90
2017-08-24T02:04:32.725Z,14.00
2017-08-24T02:07:00.256Z,13.90
2017-08-24T02:09:27.798Z,14.00
2017-08-24T02:11:55.324Z,14.00
2017-08-24T02:14:22.864Z,14.00
2017-08-24T02:16:50.378Z,14.00
2017-08-24T02:19:17.915Z,14.00
2017-08-24T02:21:45.438Z,14.00
2017-08-24T02:24:12.982Z,13.90
2017-08-24T02:26:40.500Z,13.70
2017-08-24T02:29:08.040Z,13.60
2017-08-24T02:31:35.569Z,13.60
2017-08-24T02:34:03.086Z,13.60
2017-08-24T02:36:30.630Z,13.60
2017-08-24T02:38:58.145Z,13.70
2017-08-24T02:41:25.679Z,13.70
2017-08-24T02:43:53.202Z,13.70
2017-08-24T02:46:20.746Z,13.80
2017-08-24T02:48:48.265Z,13.80
2017-08-24T02:51:15.802Z,13.80
2017-08-24T02:53:43.315Z,13.80
2017-08-24T02:56:10.859Z,13.80
2017-08-24T02:58:38.384Z,13.80
2017-08-24T03:01:05.905Z,13.70
2017-08-24T03:03:33.447Z,13.70
2017-08-24T03:06:00.958Z,13.60
2017-08-24T03:08:28.490Z,13.60
2017-08-24T03:10:56.013Z,13.70
2017-08-24T03:13:23.553Z,13.70
2017-08-24T03:15:51.073Z,13.60
2017-08-24T03:18:18.609Z,13.60
2017-08-24T03:20:46.125Z,13.70
2017-08-24T03:23:13.662Z,13.70
2017-08-24T03:25:41.179Z,13.80
2017-08-24T03:28:08.703Z,13.80
2017-08-24T03:30:36.244Z,13.80
2017-08-24T03:33:03.766Z,13.80
2017-08-24T03:35:31.306Z,13.80
2017-08-24T03:37:58.828Z,13.80
2017-08-24T03:40:26.365Z,13.70
2017-08-24T03:42:53.886Z,13.70
2017-08-24T03:45:21.421Z,13.80
2017-08-24T03:47:48.940Z,13.80
2017-08-24T03:50:16.476Z,13.90
2017-08-24T03:52:43.992Z,14.00
2017-08-24T03:55:11.530Z,14.00
2017-08-24T03:57:39.047Z,13.90
2017-08-24T04:00:06.579Z,13.90
2017-08-24T04:02:34.111Z,13.80
2017-08-24T04:05:01.629Z,13.80
2017-08-24T04:07:29.170Z,13.70
2017-08-24T04:09:56.711Z,13.70
2017-08-24T04:12:24.246Z,13.70
2017-08-24T04:14:51.758Z,13.80
2017-08-24T04:17:19.309Z,13.80
2017-08-24T04:19:46.834Z,13.90
2017-08-24T04:22:14.378Z,14.00
2017-08-24T04:24:41.906Z,14.10
2017-08-24T04:27:09.459Z,14.20
2017-08-24T04:29:36.987Z,14.20
2017-08-24T04:32:04.539Z,14.20
2017-08-24T04:34:32.058Z,14.20
2017-08-24T04:36:59.585Z,14.20
2017-08-24T04:39:27.127Z,14.10
2017-08-24T04:41:54.830Z,14.10
2017-08-24T04:44:22.375Z,14.20
2017-08-24T04:46:49.898Z,14.20
2017-08-24T04:49:17.442Z,14.30
2017-08-24T04:51:44.958Z,14.30
2017-08-24T04:54:12.507Z,14.40
2017-08-24T04:56:40.025Z,14.50
2017-08-24T04:59:07.553Z,14.50
2017-08-24T05:01:35.070Z,14.60
2017-08-24T05:04:02.605Z,14.70
2017-08-24T05:06:30.127Z,14.80
2017-08-24T05:08:57.671Z,14.80
2017-08-24T05:11:25.190Z,14.80
2017-08-24T05:13:52.707Z,14.90
2017-08-24T05:16:20.251Z,14.90
2017-08-24T05:18:47.774Z,15.00
2017-08-24T05:21:15.317Z,15.00
2017-08-24T05:23:43.011Z,15.10
2017-08-24T05:26:10.547Z,15.10
2017-08-24T05:28:38.069Z,15.20
2017-08-24T05:31:05.605Z,15.30
2017-08-24T05:33:33.133Z,15.30
2017-08-24T05:36:02.515Z,15.40
2017-08-24T05:38:30.850Z,15.40
2017-08-24T05:40:58.387Z,15.40
2017-08-24T05:43:26.031Z,15.50
2017-08-24T05:45:57.098Z,15.60
2017-08-24T05:48:26.216Z,15.70
2017-08-24T05:50:54.226Z,15.90
2017-08-24T05:53:22.149Z,16.00
2017-08-24T05:55:49.679Z,16.10
2017-08-24T05:58:17.214Z,16.20
2017-08-24T06:00:44.735Z,16.30
2017-08-24T06:03:12.274Z,16.60
2017-08-24T06:05:39.800Z,16.80
2017-08-24T06:08:07.339Z,17.00
2017-08-24T06:10:34.858Z,17.10
2017-08-24T06:13:02.393Z,17.30
2017-08-24T06:15:29.920Z,17.40
2017-08-24T06:17:57.465Z,17.50
2017-08-24T06:20:25.001Z,17.80
2017-08-24T06:22:52.548Z,17.90
2017-08-24T06:25:20.071Z,18.10
2017-08-24T06:27:47.620Z,18.30
2017-08-24T06:30:15.152Z,18.50
2017-08-24T06:32:42.670Z,18.60
2017-08-24T06:35:10.208Z,18.50
2017-08-24T06:37:37.731Z,18.40
2017-08-24T06:40:05.270Z,18.60
2017-08-24T06:42:32.785Z,18.80
2017-08-24T06:45:00.334Z,18.90
2017-08-24T06:47:27.863Z,18.90
2017-08-24T06:49:55.413Z,19.10
2017-08-24T06:52:22.926Z,19.30
2017-08-24T06:54:50.472Z,19.70
2017-08-24T06:57:17.989Z,20.20
2017-08-24T06:59:45.529Z,20.50
2017-08-24T07:02:13.072Z,20.70
2017-08-24T07:04:40.598Z,20.70
2017-08-24T07:07:08.144Z,20.50
2017-08-24T07:09:35.662Z,20.30
2017-08-24T07:12:03.201Z,20.10
2017-08-24T07:14:30.719Z,20.10
2017-08-24T07:16:58.255Z,20.20
2017-08-24T07:19:25.774Z,20.40
2017-08-24T07:21:53.311Z,20.60
2017-08-24T07:24:20.831Z,20.90
2017-08-24T07:26:48.367Z,21.50
2017-08-24T07:29:15.891Z,22.40
2017-08-24T07:31:43.437Z,22.70
2017-08-24T07:34:10.950Z,22.50
2017-08-24T07:36:38.463Z,22.40
2017-08-24T07:39:06.008Z,22.40
2017-08-24T07:41:33.525Z,22.30
2017-08-24T07:44:01.071Z,22.30
2017-08-24T07:46:28.583Z,22.20
2017-08-24T07:48:56.120Z,22.00
2017-08-24T07:51:23.639Z,21.90
2017-08-24T07:53:51.183Z,21.90
2017-08-24T07:56:18.701Z,22.00
2017-08-24T07:58:46.233Z,22.30
2017-08-24T08:01:13.747Z,22.60
2017-08-24T08:03:41.294Z,22.90
2017-08-24T08:06:08.814Z,23.10
2017-08-24T08:08:36.363Z,23.40
2017-08-24T08:11:03.882Z,23.90
2017-08-24T08:13:31.402Z,24.50
2017-08-24T08:15:58.945Z,24.90
2017-08-24T08:18:26.462Z,24.90
2017-08-24T08:20:54.003Z,25.20
2017-08-24T08:23:21.524Z,25.50
2017-08-24T08:25:49.070Z,26.00
2017-08-24T08:28:16.595Z,26.60
2017-08-24T08:30:44.138Z,26.70
2017-08-24T08:33:11.658Z,26.50
2017-08-24T08:35:39.198Z,26.90
2017-08-24T08:38:06.711Z,27.10
2017-08-24T08:40:34.257Z,27.40
2017-08-24T08:43:01.778Z,27.30
2017-08-24T08:45:29.318Z,26.90
2017-08-24T08:47:56.846Z,26.60
2017-08-24T08:50:24.378Z,26.20
2017-08-24T08:52:51.913Z,26.10
2017-08-24T08:55:19.742Z,26.30
2017-08-24T08:57:47.379Z,26.70
2017-08-24T09:00:14.893Z,27.00
2017-08-24T09:02:42.427Z,27.40
2017-08-24T09:05:09.943Z,27.50
2017-08-24T09:07:38.251Z,27.60
2017-08-24T09:10:05.769Z,27.60
2017-08-24T09:12:33.310Z,27.70
2017-08-24T09:15:00.827Z,27.70
2017-08-24T09:17:28.377Z,27.60
2017-08-24T09:19:55.931Z,27.70
2017-08-24T09:22:23.489Z,27.80
2017-08-24T09:24:51.773Z,27.60
2017-08-24T09:27:19.294Z,27.60
2017-08-24T09:29:46.833Z,27.70
2017-08-24T09:32:14.348Z,27.40
2017-08-24T09:34:41.885Z,27.30
2017-08-24T09:37:09.429Z,27.00
2017-08-24T09:39:36.973Z,26.70
2017-08-24T09:42:04.494Z,26.50
2017-08-24T09:44:32.027Z,26.50
2017-08-24T09:46:59.552Z,26.40
2017-08-24T09:49:27.082Z,26.40
2017-08-24T09:51:54.598Z,26.40
2017-08-24T09:54:22.139Z,26.30
2017-08-24T09:56:49.662Z,26.60
2017-08-24T09:59:17.203Z,26.70
2017-08-24T10:01:44.738Z,26.50
2017-08-24T10:04:12.294Z,26.50
2017-08-24T10:06:39.820Z,26.60
2017-08-24T10:09:07.343Z,26.30
2017-08-24T10:11:34.890Z,26.10
2017-08-24T10:14:02.430Z,26.30
2017-08-24T10:16:29.973Z,26.60
2017-08-24T10:18:57.496Z,26.80
2017-08-24T10:21:25.898Z,26.90
2017-08-24T10:23:53.419Z,26.80
2017-08-24T10:26:20.966Z,26.60
2017-08-24T10:28:48.537Z,26.50
2017-08-24T10:31:16.112Z,26.70
2017-08-24T10:33:43.599Z,26.70
2017-08-24T10:36:11.140Z,26.60
2017-08-24T10:38:38.667Z,26.50
2017-08-24T10:41:06.205Z,26.20
2017-08-24T10:43:33.741Z,26.30
2017-08-24T10:46:01.270Z,27.10
2017-08-24T10:48:28.807Z,27.80
2017-08-24T10:50:56.325Z,28.60
2017-08-24T10:53:23.857Z,29.00
2017-08-24T10:55:51.375Z,29.40
2017-08-24T10:58:18.923Z,29.10
2017-08-24T11:00:46.449Z,29.10
2017-08-24T11:03:13.986Z,29.10
2017-08-24T11:05:41.527Z,29.00
2017-08-24T11:08:09.068Z,29.00
2017-08-24T11:10:36.626Z,29.00
2017-08-24T11:13:04.161Z,28.90
2017-08-24T11:15:31.687Z,29.30
2017-08-24T11:17:59.222Z,29.20
2017-08-24T11:20:26.766Z,29.40
2017-08-24T11:22:54.288Z,29.40
2017-08-24T11:25:21.835Z,29.60
2017-08-24T11:27:49.354Z,29.60
2017-08-24T11:30:16.898Z,29.60
2017-08-24T11:32:44.423Z,29.30
2017-08-24T11:35:11.985Z,29.50
2017-08-24T11:37:39.505Z,29.70
2017-08-24T11:40:07.030Z,29.70
2017-08-24T11:42:34.575Z,29.90
2017-08-24T11:45:02.167Z,29.70
2017-08-24T11:47:29.635Z,29.60
2017-08-24T11:49:57.176Z,29.20
2017-08-24T11:52:24.702Z,28.80
2017-08-24T11:54:52.248Z,28.60
2017-08-24T11:57:19.766Z,28.60
2017-08-24T11:59:47.304Z,28.90
2017-08-24T12:02:14.821Z,29.10
2017-08-24T12:04:42.354Z,29.10
2017-08-24T12:07:09.878Z,29.20
2017-08-24T12:09:37.410Z,29.30
2017-08-24T12:12:04.922Z,29.50
2017-08-24T12:14:32.482Z,29.40
2017-08-24T12:17:00.018Z,29.30
2017-08-24T12:19:27.539Z,28.90
2017-08-24T12:21:55.078Z,28.90
2017-08-24T12:24:22.610Z,29.00
2017-08-24T12:26:50.150Z,28.90
2017-08-24T12:29:17.671Z,28.60
2017-08-24T12:31:45.219Z,28.50
2017-08-24T12:34:12.739Z,28.70
2017-08-24T12:36:40.276Z,28.70
2017-08-24T12:39:08.561Z,28.60
2017-08-24T12:41:36.108Z,28.50
2017-08-24T12:44:03.636Z,28.20
2017-08-24T12:46:31.179Z,27.90
2017-08-24T12:48:58.698Z,27.80
2017-08-24T12:51:26.219Z,27.90
2017-08-24T12:53:53.835Z,27.70
2017-08-24T12:56:21.360Z,27.50
2017-08-24T12:58:48.897Z,27.50
2017-08-24T13:01:16.415Z,27.40
2017-08-24T13:03:46.799Z,27.20
2017-08-24T13:06:19.259Z,27.20
2017-08-24T13:09:09.437Z,27.20
2017-08-24T13:11:45.197Z,27.40
2017-08-24T13:14:16.579Z,27.50
2017-08-24T13:16:53.442Z,27.70
2017-08-24T13:19:25.388Z,27.60
2017-08-24T13:24:38.371Z,27.70
2017-08-24T13:27:34.297Z,27.60
2017-08-24T13:32:45.710Z,27.80
2017-08-24T13:35:14.474Z,27.70
2017-08-24T13:37:46.041Z,27.60
2017-08-24T13:42:53.871Z,27.30
2017-08-24T13:47:54.114Z,27.00
2017-08-24T13:50:22.149Z,26.90
2017-08-24T13:52:49.715Z,27.00
2017-08-24T13:55:17.230Z,26.80
2017-08-24T13:57:44.772Z,27.00
2017-08-24T14:00:12.290Z,27.20
2017-08-24T14:02:39.831Z,27.20
2017-08-24T14:05:07.345Z,27.40
2017-08-24T14:07:34.893Z,27.70
2017-08-24T14:10:02.420Z,27.60
2017-08-24T14:12:29.960Z,27.60
2017-08-24T14:14:57.486Z,27.80
2017-08-24T14:17:25.022Z,27.80
2017-08-24T14:19:52.543Z,27.80
2017-08-24T14:22:20.078Z,27.50
2017-08-24T14:24:47.636Z,27.10
2017-08-24T14:27:15.181Z,26.90
2017-08-24T14:29:42.697Z,26.80
2017-08-24T14:32:10.215Z,26.80
2017-08-24T14:34:38.514Z,26.40
2017-08-24T14:37:06.037Z,26.40
2017-08-24T14:39:33.583Z,26.40
2017-08-24T14:42:01.103Z,26.40
2017-08-24T14:44:28.641Z,26.30
2017-08-24T14:46:56.154Z,26.20
2017-08-24T14:49:23.691Z,26.20
2017-08-24T14:51:51.214Z,26.30
2017-08-24T14:54:18.756Z,26.40
2017-08-24T14:56:46.282Z,26.50
2017-08-24T14:59:13.826Z,26.40
2017-08-24T15:01:41.349Z,26.30
2017-08-24T15:04:08.903Z,26.10
2017-08-24T15:06:36.423Z,25.90
2017-08-24T15:09:03.960Z,25.80
2017-08-24T15:11:31.498Z,25.70
2017-08-24T15:13:59.018Z,25.90
2017-08-24T15:16:26.563Z,25.90
2017-08-24T15:18:54.100Z,25.80
2017-08-24T15:21:21.639Z,25.90
2017-08-24T15:23:49.163Z,25.90
2017-08-24T15:26:16.710Z,26.00
2017-08-24T15:28:44.235Z,26.00
2017-08-24T15:31:11.777Z,25.80
2017-08-24T15:33:39.299Z,25.70
2017-08-24T15:36:06.834Z,25.90
2017-08-24T15:38:34.379Z,26.10
2017-08-24T15:41:01.962Z,26.40
2017-08-24T15:43:29.511Z,26.70
2017-08-24T15:45:57.030Z,26.90
2017-08-24T15:48:25.335Z,26.30
2017-08-24T15:50:52.850Z,26.30
2017-08-24T15:53:20.387Z,26.10
2017-08-24T15:55:47.912Z,25.80
2017-08-24T15:58:15.458Z,25.70
2017-08-24T16:00:42.983Z,25.70
2017-08-24T16:03:10.547Z,25.70
2017-08-24T16:05:38.071Z,25.70
2017-08-24T16:08:05.600Z,25.50
2017-08-24T16:10:33.134Z,25.50
2017-08-24T16:13:00.656Z,25.50
2017-08-24T16:15:28.191Z,25.40
2017-08-24T16:17:55.703Z,25.40
2017-08-24T16:20:23.244Z,25.40
2017-08-24T16:22:50.766Z,25.30
2017-08-24T16:25:18.307Z,25.30
2017-08-24T16:27:45.830Z,25.20
2017-08-24T16:30:13.368Z,25.10
2017-08-24T16:32:40.883Z,25.10
2017-08-24T16:35:08.422Z,25.10
2017-08-24T16:37:35.942Z,25.00
2017-08-24T16:40:03.466Z,25.00
2017-08-24T16:42:31.007Z,25.00
2017-08-24T16:44:59.293Z,24.60
2017-08-24T16:47:27.590Z,24.50
2017-08-24T16:49:55.115Z,24.50
2017-08-24T16:52:22.662Z,24.30
2017-08-24T16:54:50.189Z,24.00
2017-08-24T16:57:17.735Z,23.80
2017-08-24T16:59:45.265Z,23.60
2017-08-24T17:02:12.785Z,23.40
2017-08-24T17:04:40.334Z,23.40
2017-08-24T17:07:07.859Z,23.30
2017-08-24T17:09:35.393Z,23.30
2017-08-24T17:12:02.954Z,23.30
2017-08-24T17:14:31.254Z,23.20
2017-08-24T17:16:58.774Z,23.20
2017-08-24T17:19:26.319Z,23.20
2017-08-24T17:21:53.842Z,23.10
2017-08-24T17:24:21.377Z,23.10
2017-08-24T17:26:48.890Z,23.00
2017-08-24T17:29:16.443Z,22.90
2017-08-24T17:31:43.959Z,22.80
2017-08-24T17:34:11.474Z,22.60
2017-08-24T17:36:39.021Z,22.50
2017-08-24T17:39:06.542Z,22.50
2017-08-24T17:41:34.079Z,22.40
2017-08-24T17:44:01.602Z,22.40
2017-08-24T17:46:29.143Z,22.20
2017-08-24T17:48:56.655Z,22.10
2017-08-24T17:51:24.196Z,22.10
2017-08-24T17:53:51.725Z,22.00
2017-08-24T17:56:19.262Z,21.90
2017-08-24T17:58:46.800Z,21.80
2017-08-24T18:01:14.344Z,21.80
2017-08-24T18:03:41.866Z,21.70
2017-08-24T18:06:09.419Z,21.70
2017-08-24T18:08:36.935Z,21.70
2017-08-24T18:11:04.460Z,21.60
2017-08-24T18:13:31.998Z,21.60
2017-08-24T18:15:59.522Z,21.50
2017-08-24T18:18:27.058Z,21.40
2017-08-24T18:20:54.592Z,21.30
2017-08-24T18:23:22.136Z,21.30
2017-08-24T18:25:49.673Z,21.30
2017-08-24T18:28:17.225Z,21.30
2017-08-24T18:30:44.746Z,21.20
2017-08-24T18:33:12.285Z,21.20
2017-08-24T18:35:39.811Z,21.10
2017-08-24T18:38:07.366Z,21.00
2017-08-24T18:40:34.882Z,20.80
2017-08-24T18:43:02.398Z,20.70
2017-08-24T18:45:29.930Z,20.60
2017-08-24T18:47:57.451Z,20.40
2017-08-24T18:50:25.018Z,20.30
2017-08-24T18:52:52.534Z,20.10
2017-08-24T18:55:20.079Z,20.10
2017-08-24T18:57:47.601Z,20.00
2017-08-24T19:00:15.206Z,19.90
2017-08-24T19:02:42.726Z,19.80
2017-08-24T19:05:10.268Z,19.60
2017-08-24T19:07:37.790Z,19.50
2017-08-24T19:10:06.108Z,19.30
2017-08-24T19:12:33.626Z,19.20
2017-08-24T19:15:01.910Z,19.00
2017-08-24T19:17:29.447Z,19.00
2017-08-24T19:19:56.968Z,18.90
2017-08-24T19:22:24.501Z,18.80
2017-08-24T19:24:52.029Z,18.70
2017-08-24T19:27:19.566Z,18.70
2017-08-24T19:29:47.084Z,18.60
2017-08-24T19:32:14.620Z,18.60
2017-08-24T19:34:42.139Z,18.40
2017-08-24T19:37:09.684Z,18.30
2017-08-24T19:39:37.211Z,18.20
2017-08-24T19:42:04.748Z,18.20
2017-08-24T19:44:32.294Z,18.10
2017-08-24T19:46:59.820Z,18.00
2017-08-24T19:49:27.357Z,18.00
2017-08-24T19:51:54.883Z,18.00
2017-08-24T19:54:22.418Z,17.90
2017-08-24T19:56:49.934Z,17.90
2017-08-24T19:59:17.477Z,17.80
2017-08-24T20:01:45.002Z,17.80
2017-08-24T20:04:12.554Z,17.70
2017-08-24T20:06:40.079Z,17.60
2017-08-24T20:09:07.593Z,17.50
2017-08-24T20:11:35.131Z,17.50
2017-08-24T20:14:02.661Z,17.50
2017-08-24T20:16:30.202Z,17.50
2017-08-24T20:18:57.722Z,17.60
2017-08-24T20:21:25.263Z,17.60
2017-08-24T20:23:52.777Z,17.60
2017-08-24T20:26:20.316Z,17.60
2017-08-24T20:28:47.837Z,17.40
2017-08-24T20:31:15.377Z,17.40
2017-08-24T20:33:42.905Z,17.30
2017-08-24T20:36:11.626Z,17.20
2017-08-24T20:38:39.142Z,17.10
2017-08-24T20:41:06.690Z,17.10
2017-08-24T20:43:34.210Z,17.00
2017-08-24T20:46:01.734Z,17.00
2017-08-24T20:48:29.265Z,16.90
2017-08-24T20:50:56.781Z,16.80
2017-08-24T20:53:24.324Z,16.70
2017-08-24T20:55:51.838Z,16.70
2017-08-24T20:58:19.383Z,16.50
2017-08-24T21:00:46.903Z,16.30
2017-08-24T21:03:14.439Z,16.20
2017-08-24T21:05:41.966Z,16.20
2017-08-24T21:08:09.506Z,16.20
2017-08-24T21:10:37.027Z,16.20
2017-08-24T21:13:04.568Z,16.20
2017-08-24T21:15:32.088Z,16.30
2017-08-24T21:17:59.630Z,16.30
2017-08-24T21:20:27.151Z,16.20
2017-08-24T21:22:54.667Z,16.00
2017-08-24T21:25:22.206Z,15.80
2017-08-24T21:27:49.726Z,15.60
2017-08-24T21:30:17.267Z,15.50
2017-08-24T21:32:44.794Z,15.50
2017-08-24T21:35:12.325Z,15.50
2017-08-24T21:37:39.841Z,15.60
2017-08-24T21:40:07.383Z,15.60
2017-08-24T21:42:34.898Z,15.70
2017-08-24T21:45:02.446Z,15.60
2017-08-24T21:47:29.959Z,15.60
2017-08-24T21:49:57.495Z,15.70
2017-08-24T21:52:25.016Z,15.70
2017-08-24T21:54:52.563Z,15.60
2017-08-24T21:57:20.091Z,15.60
2017-08-24T21:59:47.611Z,15.50
2017-08-24T22:02:15.156Z,15.40
2017-08-24T22:04:42.674Z,15.40
2017-08-24T22:07:10.212Z,15.40
2017-08-24T22:09:37.730Z,15.30
2017-08-24T22:12:05.269Z,15.30
2017-08-24T22:14:32.795Z,15.30
2017-08-24T22:17:01.093Z,15.10
2017-08-24T22:19:28.651Z,15.10
2017-08-24T22:21:56.191Z,15.00
2017-08-24T22:24:23.713Z,14.90
2017-08-24T22:26:51.256Z,14.90
2017-08-24T22:29:18.776Z,14.90
2017-08-24T22:31:46.325Z,14.80
2017-08-24T22:34:13.838Z,14.90
2017-08-24T22:36:41.371Z,14.90
2017-08-24T22:39:08.914Z,14.90
2017-08-24T22:41:36.430Z,15.00
2017-08-24T22:44:03.972Z,14.90
2017-08-24T22:46:31.493Z,14.90
2017-08-24T22:48:59.030Z,14.70
2017-08-24T22:51:26.546Z,14.70
2017-08-24T22:53:59.816Z,14.50
2017-08-24T22:56:33.011Z,14.40
2017-08-24T22:59:06.171Z,14.40
2017-08-24T23:01:39.317Z,14.40
2017-08-24T23:04:06.857Z,14.40
2017-08-24T23:06:34.378Z,14.40
2017-08-24T23:09:01.923Z,14.50
2017-08-24T23:11:29.444Z,14.50
2017-08-24T23:13:56.966Z,14.50
2017-08-24T23:16:24.507Z,14.50
2017-08-24T23:18:52.794Z,14.50
2017-08-24T23:21:20.333Z,14.50
2017-08-24T23:23:47.859Z,14.50
2017-08-24T23:26:15.400Z,14.40
2017-08-24T23:28:42.914Z,14.40
2017-08-24T23:31:10.459Z,14.30
2017-08-24T23:33:37.987Z,14.30
2017-08-24T23:36:05.523Z,14.20
2017-08-24T23:38:33.060Z,14.20
2017-08-24T23:41:00.594Z,14.20
2017-08-24T23:43:28.115Z,14.20
2017-08-24T23:45:55.662Z,14.10
2017-08-24T23:48:23.182Z,14.00
2017-08-24T23:50:50.704Z,13.80
2017-08-24T23:53:18.248Z,13.70
2017-08-24T23:55:45.766Z,13.60
2017-08-24T23:58:14.079Z,13.80
